createdAt,value
2022-12-16T00:01:18.443Z,12.00
2022-12-16T00:03:52.771Z,12.25
2022-12-16T00:06:22.990Z,12.63
2022-12-16T00:08:50.110Z,13.40
2022-12-16T00:11:19.834Z,12.73
2022-12-16T00:13:47.574Z,13.20
2022-12-16T00:16:15.984Z,14.32
2022-12-16T00:18:43.196Z,14.02
2022-12-16T00:21:10.898Z,14.30
2022-12-16T00:23:44.262Z,13.65
2022-12-16T00:26:12.445Z,14.05
2022-12-16T00:28:40.114Z,14.02
2022-12-16T00:31:07.370Z,14.10
2022-12-16T00:33:35.299Z,13.77
2022-12-16T00:36:03.113Z,15.32
2022-12-16T00:38:30.217Z,14.18
2022-12-16T00:40:57.417Z,13.23
2022-12-16T00:43:24.613Z,12.90
2022-12-16T00:45:52.065Z,13.38
2022-12-16T00:48:23.185Z,13.93
2022-12-16T00:50:52.059Z,12.90
2022-12-16T00:53:19.503Z,13.27
2022-12-16T00:55:46.618Z,12.57
2022-12-16T00:58:14.040Z,12.40
2022-12-16T01:00:41.310Z,12.68
2022-12-16T01:03:08.783Z,12.85
2022-12-16T01:05:39.138Z,12.27
2022-12-16T01:08:06.262Z,12.25
2022-12-16T01:10:33.446Z,12.32
2022-12-16T01:13:00.566Z,12.70
2022-12-16T01:15:27.704Z,13.57
2022-12-16T01:17:54.822Z,12.20
2022-12-16T01:20:22.497Z,11.93
2022-12-16T01:22:49.614Z,11.57
2022-12-16T01:25:17.736Z,12.07
2022-12-16T01:27:44.881Z,11.38
2022-12-16T01:30:12.345Z,11.68
2022-12-16T01:32:39.529Z,11.18
2022-12-16T01:35:14.205Z,12.02
2022-12-16T01:37:50.681Z,12.25
2022-12-16T01:40:23.327Z,11.07
2022-12-16T01:42:50.829Z,11.65
2022-12-16T01:45:30.168Z,12.80
2022-12-16T01:47:59.710Z,11.45
2022-12-16T01:50:27.001Z,11.68
2022-12-16T01:52:56.357Z,12.02
2022-12-16T01:55:29.137Z,12.10
2022-12-16T01:57:59.587Z,12.68
2022-12-16T02:00:26.710Z,12.85
2022-12-16T02:02:54.669Z,12.88
2022-12-16T02:05:23.160Z,12.25
2022-12-16T02:08:04.485Z,11.57
2022-12-16T02:10:43.919Z,12.70
2022-12-16T02:13:16.890Z,12.98
2022-12-16T02:15:56.301Z,11.68
2022-12-16T02:18:38.693Z,12.02
2022-12-16T02:21:09.972Z,12.77
2022-12-16T02:23:43.716Z,12.05
2022-12-16T02:26:14.041Z,12.18
2022-12-16T02:28:44.122Z,12.05
2022-12-16T02:31:26.761Z,11.98
2022-12-16T02:34:09.346Z,11.82
2022-12-16T02:36:54.983Z,12.40
2022-12-16T02:39:23.655Z,12.43
2022-12-16T02:42:03.612Z,12.25
2022-12-16T02:44:57.521Z,12.00
2022-12-16T02:47:25.175Z,11.75
2022-12-16T02:49:53.697Z,12.25
2022-12-16T02:52:22.861Z,12.60
2022-12-16T02:54:52.173Z,11.30
2022-12-16T02:57:40.861Z,12.70
2022-12-16T03:00:12.603Z,12.80
2022-12-16T03:02:48.292Z,12.75
2022-12-16T03:05:18.497Z,13.13
2022-12-16T03:07:45.962Z,12.38
2022-12-16T03:10:15.908Z,12.35
2022-12-16T03:12:44.325Z,12.55
2022-12-16T03:15:13.293Z,12.50
2022-12-16T03:17:40.541Z,12.00
2022-12-16T03:20:18.211Z,12.13
2022-12-16T03:22:47.182Z,13.23
2022-12-16T03:25:14.872Z,13.52
2022-12-16T03:27:51.386Z,13.68
2022-12-16T03:30:20.644Z,12.60
2022-12-16T03:32:51.806Z,13.48
2022-12-16T03:35:27.689Z,12.95
2022-12-16T03:37:56.607Z,12.93
2022-12-16T03:40:25.880Z,12.93
2022-12-16T03:42:54.438Z,13.27
2022-12-16T03:45:26.793Z,12.50
2022-12-16T03:47:54.150Z,12.02
2022-12-16T03:50:24.554Z,14.07
2022-12-16T03:52:51.647Z,13.05
2022-12-16T03:55:18.761Z,13.25
2022-12-16T03:57:45.867Z,13.98
2022-12-16T04:00:13.360Z,13.75
2022-12-16T04:02:40.615Z,14.25
2022-12-16T04:05:08.284Z,14.60
2022-12-16T04:07:35.622Z,14.55
2022-12-16T04:10:02.761Z,14.75
2022-12-16T04:12:48.586Z,14.20
2022-12-16T04:15:18.686Z,14.55
2022-12-16T04:18:04.513Z,16.05
2022-12-16T04:20:57.878Z,17.08
2022-12-16T04:23:44.601Z,16.48
2022-12-16T04:26:11.801Z,16.17
2022-12-16T04:28:38.921Z,16.48
2022-12-16T04:31:06.236Z,17.00
2022-12-16T04:33:52.425Z,16.88
2022-12-16T04:36:38.296Z,16.38
2022-12-16T04:39:24.284Z,17.23
2022-12-16T04:42:13.231Z,17.48
2022-12-16T04:44:59.040Z,16.92
2022-12-16T04:47:44.943Z,17.00
2022-12-16T04:50:30.945Z,16.60
2022-12-16T04:53:16.830Z,17.75
2022-12-16T04:56:04.687Z,17.15
2022-12-16T04:58:50.996Z,18.27
2022-12-16T05:01:36.890Z,16.80
2022-12-16T05:04:23.051Z,17.60
2022-12-16T05:07:08.888Z,18.30
2022-12-16T05:09:54.734Z,18.13
2022-12-16T05:12:40.851Z,18.02
2022-12-16T05:15:26.703Z,18.23
2022-12-16T05:18:12.767Z,18.83
2022-12-16T05:20:58.625Z,16.52
2022-12-16T05:23:44.304Z,18.05
2022-12-16T05:26:30.261Z,18.27
2022-12-16T05:29:16.154Z,18.67
2022-12-16T05:32:02.118Z,17.90
2022-12-16T05:34:48.179Z,18.58
2022-12-16T05:37:47.777Z,18.55
2022-12-16T05:40:33.737Z,18.75
2022-12-16T05:43:19.634Z,19.00
2022-12-16T05:46:05.749Z,17.67
2022-12-16T05:48:51.683Z,17.67
2022-12-16T05:51:37.407Z,19.25
2022-12-16T05:54:23.597Z,18.63
2022-12-16T05:57:09.597Z,19.48
2022-12-16T05:59:55.518Z,19.67
2022-12-16T06:02:41.700Z,19.38
2022-12-16T06:05:27.685Z,18.60
2022-12-16T06:08:13.668Z,18.95
2022-12-16T06:10:59.815Z,20.45
2022-12-16T06:13:45.457Z,21.50
2022-12-16T06:16:44.756Z,22.95
2022-12-16T06:19:30.644Z,21.88
2022-12-16T06:22:16.613Z,22.88
2022-12-16T06:25:02.658Z,22.10
2022-12-16T06:27:48.740Z,22.70
2022-12-16T06:30:34.482Z,22.95
2022-12-16T06:33:20.379Z,23.27
2022-12-16T06:36:06.254Z,22.88
2022-12-16T06:38:52.323Z,21.70
2022-12-16T06:41:38.421Z,24.23
2022-12-16T06:44:24.304Z,23.25
2022-12-16T06:47:10.440Z,22.90
2022-12-16T06:49:56.371Z,24.67
2022-12-16T06:52:42.167Z,23.50
2022-12-16T06:55:28.086Z,22.95
2022-12-16T06:58:16.555Z,24.13
2022-12-16T07:01:02.966Z,24.25
2022-12-16T07:03:48.963Z,23.98
2022-12-16T07:06:34.885Z,24.45
2022-12-16T07:09:20.945Z,22.75
2022-12-16T07:12:06.881Z,23.25
2022-12-16T07:14:52.973Z,25.67
2022-12-16T07:17:39.061Z,23.85
2022-12-16T07:20:25.050Z,24.35
2022-12-16T07:23:19.102Z,24.88
2022-12-16T07:26:05.365Z,24.47
2022-12-16T07:28:51.286Z,24.38
2022-12-16T07:31:37.327Z,23.63
2022-12-16T07:34:23.386Z,22.77
2022-12-16T07:37:09.299Z,24.58
2022-12-16T07:39:55.626Z,25.33
2022-12-16T07:42:42.065Z,25.13
2022-12-16T07:45:28.679Z,23.85
2022-12-16T07:48:22.230Z,23.95
2022-12-16T07:51:08.073Z,24.00
2022-12-16T07:53:54.536Z,22.85
2022-12-16T07:56:40.458Z,23.02
2022-12-16T07:59:26.345Z,24.27
2022-12-16T08:02:12.310Z,24.50
2022-12-16T08:04:58.006Z,24.73
2022-12-16T08:07:43.990Z,24.60
2022-12-16T08:10:30.038Z,24.23
2022-12-16T08:13:25.866Z,25.08
2022-12-16T08:16:11.988Z,24.42
2022-12-16T08:18:57.770Z,23.45
2022-12-16T08:21:43.789Z,24.98
2022-12-16T08:24:29.633Z,23.75
2022-12-16T08:27:15.644Z,22.98
2022-12-16T08:30:01.588Z,22.80
2022-12-16T08:32:47.474Z,22.73
2022-12-16T08:35:33.563Z,22.55
2022-12-16T08:38:19.842Z,22.48
2022-12-16T08:41:05.851Z,21.75
2022-12-16T08:43:53.014Z,21.75
2022-12-16T08:46:39.172Z,21.83
2022-12-16T08:49:25.345Z,22.02
2022-12-16T08:52:11.442Z,22.50
2022-12-16T08:54:57.226Z,22.33
2022-12-16T08:57:43.197Z,24.42
2022-12-16T09:00:29.668Z,21.75
2022-12-16T09:03:18.916Z,23.15
2022-12-16T09:06:25.023Z,23.80
2022-12-16T09:11:56.061Z,21.13
2022-12-16T09:14:41.967Z,21.85
2022-12-16T09:17:27.953Z,21.88
2022-12-16T09:20:13.834Z,22.23
2022-12-16T09:22:59.762Z,23.52
2022-12-16T09:25:45.735Z,21.73
2022-12-16T09:28:31.607Z,20.42
2022-12-16T09:31:17.524Z,22.23
2022-12-16T09:34:03.447Z,22.20
2022-12-16T09:36:49.054Z,20.75
2022-12-16T09:39:34.891Z,20.77
2022-12-16T09:42:20.764Z,21.48
2022-12-16T09:45:20.062Z,22.92
2022-12-16T09:48:23.781Z,22.35
2022-12-16T09:51:12.784Z,20.45
2022-12-16T09:53:59.298Z,20.88
2022-12-16T09:56:47.975Z,20.88
2022-12-16T09:59:35.137Z,21.15
2022-12-16T10:02:21.248Z,19.92
2022-12-16T10:05:11.192Z,18.92
2022-12-16T10:07:59.889Z,19.88
2022-12-16T10:10:52.510Z,20.63
2022-12-16T10:13:52.421Z,20.40
2022-12-16T10:16:57.400Z,20.80
2022-12-16T10:20:08.751Z,20.25
2022-12-16T10:23:14.978Z,20.08
2022-12-16T10:26:07.624Z,20.60
2022-12-16T10:29:06.444Z,19.58
2022-12-16T10:31:53.094Z,21.67
2022-12-16T10:34:40.267Z,20.92
2022-12-16T10:37:26.333Z,21.17
2022-12-16T10:40:17.438Z,20.58
2022-12-16T10:43:07.422Z,21.05
2022-12-16T10:45:59.908Z,21.15
2022-12-16T10:48:55.132Z,20.45
2022-12-16T10:51:43.190Z,20.80
2022-12-16T10:54:37.882Z,22.05
2022-12-16T10:57:35.031Z,22.07
2022-12-16T11:00:29.674Z,19.98
2022-12-16T11:03:15.786Z,20.83
2022-12-16T11:06:22.064Z,21.83
2022-12-16T11:09:07.850Z,20.80
2022-12-16T11:11:53.446Z,21.55
2022-12-16T11:15:27.014Z,20.17
2022-12-16T11:17:54.748Z,20.83
2022-12-16T11:20:43.422Z,22.65
2022-12-16T11:23:35.260Z,22.30
2022-12-16T11:26:31.739Z,22.60
2022-12-16T11:29:33.738Z,21.88
2022-12-16T11:32:25.558Z,22.35
2022-12-16T11:35:19.250Z,21.92
2022-12-16T11:38:05.998Z,21.88
2022-12-16T11:40:52.130Z,22.38
2022-12-16T11:43:39.113Z,21.35
2022-12-16T11:46:29.345Z,22.58
2022-12-16T11:49:28.078Z,22.17
2022-12-16T11:52:35.911Z,20.90
2022-12-16T11:55:55.556Z,21.63
2022-12-16T11:58:51.332Z,21.15
2022-12-16T12:01:44.922Z,19.58
2022-12-16T12:04:31.826Z,20.13
2022-12-16T12:07:41.222Z,20.38
2022-12-16T12:10:30.647Z,19.98
2022-12-16T12:13:31.371Z,20.38
2022-12-16T12:16:22.684Z,20.08
2022-12-16T12:19:31.454Z,20.70
2022-12-16T12:22:31.822Z,19.90
2022-12-16T12:25:23.165Z,20.45
2022-12-16T12:28:20.683Z,20.10
2022-12-16T12:31:13.756Z,21.63
2022-12-16T12:34:13.784Z,20.83
2022-12-16T12:37:08.302Z,20.45
2022-12-16T12:39:59.793Z,21.08
2022-12-16T12:43:08.337Z,21.17
2022-12-16T12:46:12.746Z,20.63
2022-12-16T12:49:17.377Z,19.13
2022-12-16T12:52:20.766Z,19.33
2022-12-16T12:55:15.531Z,18.10
2022-12-16T12:58:03.205Z,19.47
2022-12-16T13:00:51.423Z,18.33
2022-12-16T13:04:00.543Z,19.05
2022-12-16T13:06:46.427Z,18.33
2022-12-16T13:09:45.553Z,17.63
2022-12-16T13:12:31.415Z,18.65
2022-12-16T13:15:22.944Z,18.92
2022-12-16T13:18:20.312Z,18.90
2022-12-16T13:21:09.780Z,17.35
2022-12-16T13:23:56.995Z,18.15
2022-12-16T13:26:43.985Z,17.83
2022-12-16T13:29:52.117Z,18.63
2022-12-16T13:32:39.155Z,17.73
2022-12-16T13:35:27.484Z,18.77
2022-12-16T13:38:14.311Z,20.45
2022-12-16T13:41:15.290Z,19.23
2022-12-16T13:44:17.462Z,18.83
2022-12-16T13:47:05.888Z,17.92
2022-12-16T13:50:11.391Z,19.17
2022-12-16T13:52:57.360Z,18.40
2022-12-16T13:56:01.639Z,17.63
2022-12-16T13:59:06.114Z,19.10
2022-12-16T14:02:02.490Z,18.35
2022-12-16T14:04:50.837Z,18.40
2022-12-16T14:07:37.690Z,18.65
2022-12-16T14:10:23.783Z,18.70
2022-12-16T14:13:23.953Z,17.42
2022-12-16T14:16:09.883Z,17.30
2022-12-16T14:19:03.305Z,18.08
2022-12-16T14:21:54.339Z,17.73
2022-12-16T14:24:43.339Z,16.70
2022-12-16T14:27:33.313Z,18.52
2022-12-16T14:30:19.264Z,18.25
2022-12-16T14:33:05.281Z,17.48
2022-12-16T14:35:51.287Z,18.45
2022-12-16T14:38:37.071Z,16.77
2022-12-16T14:41:23.145Z,17.85
2022-12-16T14:46:50.587Z,18.05
2022-12-16T14:49:39.084Z,18.27
2022-12-16T14:52:35.050Z,18.73
2022-12-16T14:55:30.798Z,18.70
2022-12-16T14:58:37.340Z,18.38
2022-12-16T15:01:28.849Z,18.05
2022-12-16T15:04:15.265Z,18.25
2022-12-16T15:07:02.594Z,18.17
2022-12-16T15:09:57.970Z,18.10
2022-12-16T15:12:45.215Z,18.52
2022-12-16T15:15:49.566Z,17.65
2022-12-16T15:18:37.633Z,18.35
2022-12-16T15:21:23.478Z,17.90
2022-12-16T15:24:10.440Z,18.08
2022-12-16T15:26:56.169Z,17.40
2022-12-16T15:29:47.731Z,16.65
2022-12-16T15:32:45.352Z,16.73
2022-12-16T15:35:42.333Z,16.00
2022-12-16T15:38:33.923Z,15.50
2022-12-16T15:41:23.701Z,15.38
2022-12-16T15:44:09.858Z,16.00
2022-12-16T15:46:55.866Z,14.65
2022-12-16T15:49:41.948Z,14.70
2022-12-16T15:52:46.665Z,14.63
2022-12-16T15:55:44.409Z,14.45
2022-12-16T15:58:34.387Z,14.98
2022-12-16T16:01:27.975Z,14.48
2022-12-16T16:04:15.937Z,15.07
2022-12-16T16:07:05.453Z,15.32
2022-12-16T16:09:52.000Z,15.15
2022-12-16T16:12:39.068Z,13.98
2022-12-16T16:15:26.308Z,16.13
2022-12-16T16:18:20.192Z,15.60
2022-12-16T16:21:06.080Z,16.30
2022-12-16T16:23:52.040Z,15.48
2022-12-16T16:26:39.142Z,14.48
2022-12-16T16:29:24.985Z,14.63
2022-12-16T16:32:11.841Z,15.65
2022-12-16T16:34:57.748Z,15.25
2022-12-16T16:37:43.652Z,16.00
2022-12-16T16:40:36.526Z,15.65
2022-12-16T16:43:22.437Z,15.18
2022-12-16T16:46:12.199Z,15.75
2022-12-16T16:48:58.757Z,16.15
2022-12-16T16:51:44.660Z,15.02
2022-12-16T16:54:30.696Z,16.23
2022-12-16T16:57:16.714Z,16.08
2022-12-16T17:00:02.616Z,16.40
2022-12-16T17:02:48.869Z,16.63
2022-12-16T17:05:34.703Z,16.55
2022-12-16T17:08:31.219Z,15.63
2022-12-16T17:11:17.253Z,16.63
2022-12-16T17:14:03.239Z,15.82
2022-12-16T17:16:49.330Z,16.48
2022-12-16T17:19:35.200Z,16.25
2022-12-16T17:22:21.161Z,16.27
2022-12-16T17:25:07.076Z,16.42
2022-12-16T17:27:53.197Z,15.88
2022-12-16T17:30:46.516Z,17.40
2022-12-16T17:33:34.303Z,19.13
2022-12-16T17:36:20.271Z,17.30
2022-12-16T17:39:06.268Z,17.95
2022-12-16T17:41:52.839Z,16.67
2022-12-16T17:44:38.945Z,17.73
2022-12-16T17:47:24.813Z,18.60
2022-12-16T17:50:10.812Z,17.75
2022-12-16T17:52:56.768Z,19.23
2022-12-16T17:55:42.886Z,16.83
2022-12-16T17:58:30.949Z,17.45
2022-12-16T18:01:23.993Z,16.58
2022-12-16T18:04:10.579Z,17.98
2022-12-16T18:06:56.464Z,18.27
2022-12-16T18:09:42.421Z,21.58
2022-12-16T18:12:28.369Z,18.73
2022-12-16T18:15:14.383Z,17.75
2022-12-16T18:18:00.342Z,18.15
2022-12-16T18:20:46.221Z,19.23
2022-12-16T18:23:32.696Z,17.73
2022-12-16T18:26:20.276Z,17.58
2022-12-16T18:29:06.312Z,16.90
2022-12-16T18:31:52.881Z,18.02
2022-12-16T18:34:38.671Z,16.88
2022-12-16T18:37:24.613Z,19.13
2022-12-16T18:40:10.808Z,17.65
2022-12-16T18:43:10.474Z,17.13
2022-12-16T18:45:56.640Z,18.23
2022-12-16T18:48:42.698Z,17.40
2022-12-16T18:51:28.736Z,19.70
2022-12-16T18:54:14.663Z,19.00
2022-12-16T18:57:00.509Z,17.73
2022-12-16T18:59:46.524Z,18.45
2022-12-16T19:02:33.053Z,18.35
2022-12-16T19:05:19.010Z,19.10
2022-12-16T19:08:05.801Z,18.40
2022-12-16T19:10:53.955Z,17.52
2022-12-16T19:13:39.792Z,18.10
2022-12-16T19:16:26.091Z,17.42
2022-12-16T19:19:17.933Z,17.15
2022-12-16T19:22:05.886Z,16.80
2022-12-16T19:24:51.874Z,16.13
2022-12-16T19:27:37.809Z,17.38
2022-12-16T19:30:23.982Z,16.27
2022-12-16T19:33:09.835Z,18.40
2022-12-16T19:35:56.888Z,27.10
2022-12-16T19:38:56.619Z,19.45
2022-12-16T19:41:42.623Z,16.10
2022-12-16T19:44:28.672Z,17.35
2022-12-16T19:47:14.659Z,17.75
2022-12-16T19:50:00.653Z,19.38
2022-12-16T19:52:46.609Z,17.63
2022-12-16T19:55:32.500Z,18.30
2022-12-16T19:58:18.528Z,19.02
2022-12-16T20:01:04.426Z,18.05
2022-12-16T20:03:51.940Z,17.20
2022-12-16T20:06:38.309Z,18.08
2022-12-16T20:09:24.303Z,17.77
2022-12-16T20:12:10.107Z,17.60
2022-12-16T20:14:56.522Z,18.63
2022-12-16T20:17:42.708Z,17.98
2022-12-16T20:20:28.745Z,18.48
2022-12-16T20:23:14.969Z,19.08
2022-12-16T20:26:00.935Z,17.85
2022-12-16T20:28:46.802Z,18.88
2022-12-16T20:31:32.689Z,18.30
2022-12-16T20:34:18.573Z,18.55
2022-12-16T20:37:06.025Z,18.92
2022-12-16T20:40:05.590Z,16.90
2022-12-16T20:42:51.673Z,18.70
2022-12-16T20:45:39.056Z,17.40
2022-12-16T20:48:25.090Z,17.52
2022-12-16T20:51:22.566Z,18.33
2022-12-16T20:54:10.637Z,19.98
2022-12-16T20:56:56.727Z,19.60
2022-12-16T20:59:42.758Z,18.85
2022-12-16T21:05:36.331Z,18.73
2022-12-16T21:08:22.546Z,18.75
2022-12-16T21:11:08.488Z,18.92
2022-12-16T21:19:46.006Z,18.23
2022-12-16T21:22:31.865Z,17.73
2022-12-16T21:25:24.384Z,18.75
2022-12-16T21:28:10.934Z,19.25
2022-12-16T21:30:56.870Z,19.38
2022-12-16T21:33:42.946Z,18.27
2022-12-16T21:36:28.981Z,18.75
2022-12-16T21:39:14.770Z,18.30
2022-12-16T21:42:00.587Z,17.23
2022-12-16T21:44:46.597Z,17.38
2022-12-16T21:47:32.546Z,19.35
2022-12-16T21:50:18.608Z,16.77
2022-12-16T21:53:06.650Z,16.83
2022-12-16T21:55:52.578Z,15.25
2022-12-16T21:58:39.637Z,15.32
2022-12-16T22:01:26.041Z,15.98
2022-12-16T22:04:11.860Z,17.20
2022-12-16T22:06:57.870Z,14.95
2022-12-16T22:09:43.944Z,14.85
2022-12-16T22:12:29.938Z,17.77
2022-12-16T22:15:16.050Z,17.42
2022-12-16T22:18:01.883Z,17.83
2022-12-16T22:20:48.004Z,17.30
2022-12-16T22:23:34.022Z,17.27
2022-12-16T22:26:20.350Z,18.27
2022-12-16T22:29:17.020Z,17.55
2022-12-16T22:32:02.900Z,16.33
2022-12-16T22:34:48.940Z,17.02
2022-12-16T22:37:34.761Z,16.70
2022-12-16T22:40:20.714Z,18.58
2022-12-16T22:43:07.656Z,18.10
2022-12-16T22:45:53.603Z,16.75
2022-12-16T22:48:42.023Z,17.48
2022-12-16T22:51:31.638Z,17.48
2022-12-16T22:54:17.829Z,18.17
2022-12-16T22:57:03.800Z,17.15
2022-12-16T22:59:49.708Z,17.30
2022-12-16T23:02:35.637Z,17.52
2022-12-16T23:05:27.296Z,16.42
2022-12-16T23:08:13.599Z,16.27
2022-12-16T23:10:59.638Z,16.50
2022-12-16T23:13:46.232Z,16.85
2022-12-16T23:16:32.326Z,15.38
2022-12-16T23:19:18.253Z,16.27
2022-12-16T23:22:04.185Z,16.88
2022-12-16T23:24:50.290Z,15.65
2022-12-16T23:27:36.057Z,15.25
2022-12-16T23:30:21.889Z,15.48
2022-12-16T23:33:07.992Z,15.25
2022-12-16T23:35:53.951Z,15.07
2022-12-16T23:38:41.534Z,15.57
2022-12-16T23:41:27.521Z,14.48
2022-12-16T23:44:13.458Z,14.95
2022-12-16T23:46:59.573Z,14.43
2022-12-16T23:49:45.566Z,14.77
2022-12-16T23:52:31.466Z,15.63
2022-12-16T23:55:17.469Z,14.43
2022-12-16T23:58:03.283Z,15.30
